sensor_id;sensor_type;location;lat;lon;timestamp;pressure;altitude;pressure_sealevel;temperature;humidity
16016;BME280;8112;53.592;10.184;2023-10-09T00:00:07;101862.50;;;11.29;100.00
16016;BME280;8112;53.592;10.184;2023-10-09T00:05:36;101876.91;;;11.01;100.00
16016;BME280;8112;53.592;10.184;2023-10-09T00:10:46;101867.94;;;11.05;100.00
16016;BME280;8112;53.592;10.184;2023-10-09T00:15:53;101837.03;;;11.27;100.00
16016;BME280;8112;53.592;10.184;2023-10-09T00:21:01;101812.94;;;11.35;100.00
16016;BME280;8112;53.592;10.184;2023-10-09T00:26:13;101804.19;;;11.35;100.00
16016;BME280;8112;53.592;10.184;2023-10-09T00:31:23;101793.25;;;11.23;100.00
16016;BME280;8112;53.592;10.184;2023-10-09T00:36:34;101776.09;;;11.13;100.00
16016;BME280;8112;53.592;10.184;2023-10-09T00:41:50;101771.63;;;11.15;100.00
16016;BME280;8112;53.592;10.184;2023-10-09T00:46:54;101753.81;;;11.20;100.00
16016;BME280;8112;53.592;10.184;2023-10-09T00:52:04;101772.84;;;11.08;100.00
16016;BME280;8112;53.592;10.184;2023-10-09T00:57:12;101752.16;;;11.18;100.00
16016;BME280;8112;53.592;10.184;2023-10-09T01:02:16;101737.06;;;11.21;100.00
16016;BME280;8112;53.592;10.184;2023-10-09T01:07:21;101731.94;;;11.18;100.00
16016;BME280;8112;53.592;10.184;2023-10-09T01:12:26;101717.44;;;11.08;100.00
16016;BME280;8112;53.592;10.184;2023-10-09T01:17:31;101711.78;;;10.96;100.00
16016;BME280;8112;53.592;10.184;2023-10-09T01:22:37;101707.72;;;10.89;100.00
16016;BME280;8112;53.592;10.184;2023-10-09T01:27:40;101702.94;;;10.97;100.00
16016;BME280;8112;53.592;10.184;2023-10-09T01:32:44;101689.19;;;10.91;100.00
16016;BME280;8112;53.592;10.184;2023-10-09T01:37:46;101685.53;;;10.93;100.00
16016;BME280;8112;53.592;10.184;2023-10-09T01:42:51;101675.72;;;10.97;100.00
16016;BME280;8112;53.592;10.184;2023-10-09T01:47:52;101682.13;;;10.91;100.00
16016;BME280;8112;53.592;10.184;2023-10-09T01:52:55;101687.25;;;10.94;100.00
16016;BME280;8112;53.592;10.184;2023-10-09T01:57:58;101671.53;;;10.93;100.00
16016;BME280;8112;53.592;10.184;2023-10-09T02:03:05;101647.19;;;10.86;100.00
16016;BME280;8112;53.592;10.184;2023-10-09T02:08:13;101678.25;;;10.79;100.00
16016;BME280;8112;53.592;10.184;2023-10-09T02:13:18;101649.06;;;10.84;100.00
16016;BME280;8112;53.592;10.184;2023-10-09T02:18:21;101646.47;;;10.82;100.00
16016;BME280;8112;53.592;10.184;2023-10-09T02:23:40;101660.00;;;10.75;100.00
16016;BME280;8112;53.592;10.184;2023-10-09T02:28:47;101637.84;;;10.79;100.00
16016;BME280;8112;53.592;10.184;2023-10-09T02:33:58;101645.53;;;10.64;100.00
16016;BME280;8112;53.592;10.184;2023-10-09T02:39:05;101623.69;;;10.81;100.00
16016;BME280;8112;53.592;10.184;2023-10-09T02:44:09;101633.25;;;10.84;100.00
16016;BME280;8112;53.592;10.184;2023-10-09T02:49:11;101638.66;;;10.81;100.00
16016;BME280;8112;53.592;10.184;2023-10-09T02:54:16;101621.75;;;10.85;100.00
16016;BME280;8112;53.592;10.184;2023-10-09T02:59:29;101604.38;;;10.81;100.00
16016;BME280;8112;53.592;10.184;2023-10-09T03:04:33;101611.41;;;10.80;100.00
16016;BME280;8112;53.592;10.184;2023-10-09T03:09:35;101598.81;;;10.87;100.00
16016;BME280;8112;53.592;10.184;2023-10-09T03:14:40;101579.28;;;10.91;100.00
16016;BME280;8112;53.592;10.184;2023-10-09T03:19:43;101575.22;;;10.84;100.00
16016;BME280;8112;53.592;10.184;2023-10-09T03:24:46;101558.19;;;10.91;100.00
16016;BME280;8112;53.592;10.184;2023-10-09T03:29:51;101560.97;;;10.88;100.00
16016;BME280;8112;53.592;10.184;2023-10-09T03:34:54;101543.38;;;10.89;100.00
16016;BME280;8112;53.592;10.184;2023-10-09T03:39:55;101538.00;;;10.90;100.00
16016;BME280;8112;53.592;10.184;2023-10-09T03:44:58;101536.31;;;10.89;100.00
16016;BME280;8112;53.592;10.184;2023-10-09T03:50:00;101516.56;;;10.79;100.00
16016;BME280;8112;53.592;10.184;2023-10-09T03:55:08;101529.38;;;10.87;100.00
16016;BME280;8112;53.592;10.184;2023-10-09T04:00:14;101515.28;;;10.88;100.00
16016;BME280;8112;53.592;10.184;2023-10-09T04:05:24;101524.25;;;10.83;100.00
16016;BME280;8112;53.592;10.184;2023-10-09T04:10:26;101507.59;;;10.83;100.00
16016;BME280;8112;53.592;10.184;2023-10-09T04:15:52;101496.03;;;10.86;100.00
16016;BME280;8112;53.592;10.184;2023-10-09T04:20:55;101481.38;;;10.80;100.00
16016;BME280;8112;53.592;10.184;2023-10-09T04:26:13;101488.22;;;10.84;100.00
16016;BME280;8112;53.592;10.184;2023-10-09T04:31:16;101486.50;;;10.83;100.00
16016;BME280;8112;53.592;10.184;2023-10-09T04:36:20;101480.31;;;10.84;100.00
16016;BME280;8112;53.592;10.184;2023-10-09T04:41:29;101469.75;;;10.84;100.00
16016;BME280;8112;53.592;10.184;2023-10-09T04:46:35;101472.41;;;10.84;100.00
16016;BME280;8112;53.592;10.184;2023-10-09T04:51:44;101474.00;;;10.87;100.00
16016;BME280;8112;53.592;10.184;2023-10-09T04:57:01;101474.38;;;10.79;100.00
16016;BME280;8112;53.592;10.184;2023-10-09T05:02:05;101487.09;;;10.71;100.00
16016;BME280;8112;53.592;10.184;2023-10-09T05:07:19;101464.84;;;10.76;100.00
16016;BME280;8112;53.592;10.184;2023-10-09T05:12:47;101464.47;;;10.84;100.00
16016;BME280;8112;53.592;10.184;2023-10-09T05:17:58;101447.22;;;10.77;100.00
16016;BME280;8112;53.592;10.184;2023-10-09T05:23:09;101424.94;;;10.84;100.00
16016;BME280;8112;53.592;10.184;2023-10-09T05:28:25;101424.00;;;10.85;100.00
16016;BME280;8112;53.592;10.184;2023-10-09T05:33:34;101426.59;;;10.67;100.00
16016;BME280;8112;53.592;10.184;2023-10-09T05:38:37;101417.63;;;10.72;100.00
16016;BME280;8112;53.592;10.184;2023-10-09T05:43:46;101419.94;;;10.78;100.00
16016;BME280;8112;53.592;10.184;2023-10-09T05:49:07;101422.41;;;10.63;100.00
16016;BME280;8112;53.592;10.184;2023-10-09T05:54:20;101409.38;;;10.60;100.00
16016;BME280;8112;53.592;10.184;2023-10-09T05:59:39;101440.88;;;10.63;100.00
16016;BME280;8112;53.592;10.184;2023-10-09T06:04:59;101434.66;;;10.64;100.00
16016;BME280;8112;53.592;10.184;2023-10-09T06:10:21;101408.88;;;10.52;100.00
16016;BME280;8112;53.592;10.184;2023-10-09T06:15:39;101424.03;;;10.27;100.00
16016;BME280;8112;53.592;10.184;2023-10-09T06:21:11;101443.09;;;9.94;100.00
16016;BME280;8112;53.592;10.184;2023-10-09T06:26:26;101437.84;;;9.94;100.00
16016;BME280;8112;53.592;10.184;2023-10-09T06:31:33;101425.78;;;10.09;100.00
16016;BME280;8112;53.592;10.184;2023-10-09T06:36:56;101442.25;;;9.94;100.00
16016;BME280;8112;53.592;10.184;2023-10-09T06:42:04;101433.25;;;10.00;100.00
16016;BME280;8112;53.592;10.184;2023-10-09T06:47:17;101411.72;;;10.09;100.00
16016;BME280;8112;53.592;10.184;2023-10-09T06:52:20;101408.59;;;10.20;100.00
16016;BME280;8112;53.592;10.184;2023-10-09T06:57:42;101412.44;;;10.32;100.00
16016;BME280;8112;53.592;10.184;2023-10-09T07:02:49;101429.09;;;10.32;100.00
16016;BME280;8112;53.592;10.184;2023-10-09T07:07:52;101427.03;;;10.20;100.00
16016;BME280;8112;53.592;10.184;2023-10-09T07:13:12;101425.91;;;10.25;100.00
16016;BME280;8112;53.592;10.184;2023-10-09T07:18:14;101424.78;;;10.31;100.00
16016;BME280;8112;53.592;10.184;2023-10-09T07:23:25;101427.84;;;10.41;100.00
16016;BME280;8112;53.592;10.184;2023-10-09T07:28:28;101427.47;;;10.30;100.00
16016;BME280;8112;53.592;10.184;2023-10-09T07:33:36;101424.63;;;10.34;100.00
16016;BME280;8112;53.592;10.184;2023-10-09T07:38:59;101421.72;;;10.40;100.00
16016;BME280;8112;53.592;10.184;2023-10-09T07:44:02;101429.41;;;10.45;100.00
16016;BME280;8112;53.592;10.184;2023-10-09T07:49:19;101421.34;;;10.67;100.00
16016;BME280;8112;53.592;10.184;2023-10-09T07:54:26;101415.59;;;10.77;100.00
16016;BME280;8112;53.592;10.184;2023-10-09T07:59:33;101416.31;;;10.80;100.00
16016;BME280;8112;53.592;10.184;2023-10-09T08:04:37;101439.63;;;10.71;100.00
16016;BME280;8112;53.592;10.184;2023-10-09T08:09:41;101445.47;;;10.58;100.00
16016;BME280;8112;53.592;10.184;2023-10-09T08:14:47;101439.00;;;10.65;100.00
16016;BME280;8112;53.592;10.184;2023-10-09T08:19:50;101425.69;;;10.68;100.00
16016;BME280;8112;53.592;10.184;2023-10-09T08:24:58;101429.09;;;10.71;100.00
16016;BME280;8112;53.592;10.184;2023-10-09T08:30:01;101433.44;;;10.72;100.00
16016;BME280;8112;53.592;10.184;2023-10-09T08:35:31;101428.88;;;10.75;100.00
16016;BME280;8112;53.592;10.184;2023-10-09T08:40:36;101447.22;;;10.77;100.00
16016;BME280;8112;53.592;10.184;2023-10-09T08:45:41;101443.41;;;10.84;100.00
16016;BME280;8112;53.592;10.184;2023-10-09T08:50:46;101451.75;;;10.92;100.00
16016;BME280;8112;53.592;10.184;2023-10-09T08:55:51;101446.34;;;10.95;100.00
16016;BME280;8112;53.592;10.184;2023-10-09T09:00:52;101445.34;;;10.98;100.00
16016;BME280;8112;53.592;10.184;2023-10-09T09:05:57;101443.09;;;11.08;100.00
16016;BME280;8112;53.592;10.184;2023-10-09T09:11:04;101445.41;;;11.14;100.00
16016;BME280;8112;53.592;10.184;2023-10-09T09:16:13;101430.78;;;11.26;100.00
16016;BME280;8112;53.592;10.184;2023-10-09T09:21:17;101430.53;;;11.31;100.00
16016;BME280;8112;53.592;10.184;2023-10-09T09:26:42;101434.81;;;11.33;100.00
16016;BME280;8112;53.592;10.184;2023-10-09T09:31:54;101426.94;;;11.32;100.00
16016;BME280;8112;53.592;10.184;2023-10-09T09:36:58;101433.63;;;11.39;100.00
16016;BME280;8112;53.592;10.184;2023-10-09T09:42:06;101427.25;;;11.43;100.00
16016;BME280;8112;53.592;10.184;2023-10-09T09:47:15;101412.34;;;11.60;100.00
16016;BME280;8112;53.592;10.184;2023-10-09T09:52:24;101415.13;;;11.74;100.00
16016;BME280;8112;53.592;10.184;2023-10-09T09:57:27;101411.78;;;11.87;100.00
16016;BME280;8112;53.592;10.184;2023-10-09T10:02:32;101399.53;;;11.86;100.00
16016;BME280;8112;53.592;10.184;2023-10-09T10:07:38;101398.00;;;11.81;100.00
16016;BME280;8112;53.592;10.184;2023-10-09T10:12:51;101390.06;;;11.81;100.00
16016;BME280;8112;53.592;10.184;2023-10-09T10:18:08;101396.72;;;11.89;100.00
16016;BME280;8112;53.592;10.184;2023-10-09T10:23:18;101391.88;;;11.97;100.00
16016;BME280;8112;53.592;10.184;2023-10-09T10:28:23;101390.13;;;12.14;100.00
16016;BME280;8112;53.592;10.184;2023-10-09T10:34:05;101389.00;;;12.34;100.00
16016;BME280;8112;53.592;10.184;2023-10-09T10:39:11;101392.25;;;12.23;100.00
16016;BME280;8112;53.592;10.184;2023-10-09T10:44:27;101394.31;;;12.02;100.00
16016;BME280;8112;53.592;10.184;2023-10-09T10:49:43;101391.16;;;12.11;100.00
16016;BME280;8112;53.592;10.184;2023-10-09T10:54:45;101388.84;;;12.05;100.00
16016;BME280;8112;53.592;10.184;2023-10-09T10:59:49;101389.06;;;12.00;100.00
16016;BME280;8112;53.592;10.184;2023-10-09T11:05:03;101394.13;;;12.05;100.00
16016;BME280;8112;53.592;10.184;2023-10-09T11:10:23;101395.47;;;11.96;100.00
16016;BME280;8112;53.592;10.184;2023-10-09T11:15:34;101389.69;;;12.05;100.00
16016;BME280;8112;53.592;10.184;2023-10-09T11:20:45;101387.25;;;12.18;100.00
16016;BME280;8112;53.592;10.184;2023-10-09T11:25:57;101389.91;;;12.18;100.00
16016;BME280;8112;53.592;10.184;2023-10-09T11:31:22;101385.03;;;12.10;100.00
16016;BME280;8112;53.592;10.184;2023-10-09T11:36:24;101392.19;;;12.08;100.00
16016;BME280;8112;53.592;10.184;2023-10-09T11:41:31;101399.59;;;12.18;100.00
16016;BME280;8112;53.592;10.184;2023-10-09T11:46:57;101394.75;;;12.26;100.00
16016;BME280;8112;53.592;10.184;2023-10-09T11:52:08;101391.06;;;12.29;100.00
16016;BME280;8112;53.592;10.184;2023-10-09T11:57:26;101390.72;;;12.51;100.00
16016;BME280;8112;53.592;10.184;2023-10-09T12:02:36;101381.03;;;12.82;100.00
16016;BME280;8112;53.592;10.184;2023-10-09T12:07:44;101387.03;;;13.00;100.00
16016;BME280;8112;53.592;10.184;2023-10-09T12:12:46;101369.06;;;13.05;100.00
16016;BME280;8112;53.592;10.184;2023-10-09T12:17:50;101353.69;;;13.12;100.00
16016;BME280;8112;53.592;10.184;2023-10-09T12:22:53;101361.16;;;13.20;100.00
16016;BME280;8112;53.592;10.184;2023-10-09T12:27:58;101360.50;;;13.02;100.00
16016;BME280;8112;53.592;10.184;2023-10-09T12:33:03;101360.91;;;12.79;100.00
16016;BME280;8112;53.592;10.184;2023-10-09T12:38:07;101377.34;;;12.85;100.00
16016;BME280;8112;53.592;10.184;2023-10-09T12:43:12;101384.06;;;12.90;100.00
16016;BME280;8112;53.592;10.184;2023-10-09T12:48:19;101383.06;;;12.77;100.00
16016;BME280;8112;53.592;10.184;2023-10-09T12:53:21;101385.19;;;12.86;100.00
16016;BME280;8112;53.592;10.184;2023-10-09T12:58:22;101381.06;;;12.96;100.00
16016;BME280;8112;53.592;10.184;2023-10-09T13:03:28;101376.00;;;13.08;100.00
16016;BME280;8112;53.592;10.184;2023-10-09T13:08:33;101365.31;;;13.24;100.00
16016;BME280;8112;53.592;10.184;2023-10-09T13:13:36;101361.56;;;13.28;100.00
16016;BME280;8112;53.592;10.184;2023-10-09T13:18:43;101361.19;;;13.34;100.00
16016;BME280;8112;53.592;10.184;2023-10-09T13:23:50;101361.03;;;13.52;100.00
16016;BME280;8112;53.592;10.184;2023-10-09T13:28:56;101359.81;;;13.58;100.00
16016;BME280;8112;53.592;10.184;2023-10-09T13:33:59;101356.31;;;13.57;100.00
16016;BME280;8112;53.592;10.184;2023-10-09T13:39:04;101360.38;;;13.48;100.00
16016;BME280;8112;53.592;10.184;2023-10-09T13:44:34;101363.03;;;13.63;100.00
16016;BME280;8112;53.592;10.184;2023-10-09T13:49:37;101356.78;;;13.49;100.00
16016;BME280;8112;53.592;10.184;2023-10-09T13:54:41;101353.50;;;13.46;100.00
16016;BME280;8112;53.592;10.184;2023-10-09T13:59:44;101349.59;;;13.51;100.00
16016;BME280;8112;53.592;10.184;2023-10-09T14:04:49;101355.00;;;13.64;100.00
16016;BME280;8112;53.592;10.184;2023-10-09T14:09:52;101350.06;;;13.58;100.00
16016;BME280;8112;53.592;10.184;2023-10-09T14:15:09;101353.50;;;13.46;100.00
16016;BME280;8112;53.592;10.184;2023-10-09T14:20:17;101356.47;;;13.39;100.00
16016;BME280;8112;53.592;10.184;2023-10-09T14:25:30;101354.09;;;13.35;100.00
16016;BME280;8112;53.592;10.184;2023-10-09T14:30:34;101364.03;;;13.31;100.00
16016;BME280;8112;53.592;10.184;2023-10-09T14:35:44;101351.16;;;13.25;100.00
16016;BME280;8112;53.592;10.184;2023-10-09T14:40:45;101353.34;;;13.33;100.00
16016;BME280;8112;53.592;10.184;2023-10-09T14:45:49;101344.75;;;13.29;100.00
16016;BME280;8112;53.592;10.184;2023-10-09T14:50:54;101365.44;;;13.22;100.00
16016;BME280;8112;53.592;10.184;2023-10-09T14:56:04;101374.69;;;13.30;100.00
16016;BME280;8112;53.592;10.184;2023-10-09T15:01:11;101381.50;;;13.34;100.00
16016;BME280;8112;53.592;10.184;2023-10-09T15:06:18;101382.84;;;13.41;100.00
16016;BME280;8112;53.592;10.184;2023-10-09T15:11:21;101377.13;;;13.49;100.00
16016;BME280;8112;53.592;10.184;2023-10-09T15:16:26;101388.34;;;13.52;100.00
16016;BME280;8112;53.592;10.184;2023-10-09T15:21:30;101379.31;;;13.57;100.00
16016;BME280;8112;53.592;10.184;2023-10-09T15:26:33;101390.53;;;13.60;100.00
16016;BME280;8112;53.592;10.184;2023-10-09T15:31:36;101383.66;;;13.58;100.00
16016;BME280;8112;53.592;10.184;2023-10-09T15:36:39;101393.50;;;13.56;100.00
16016;BME280;8112;53.592;10.184;2023-10-09T15:41:41;101392.53;;;13.57;100.00
16016;BME280;8112;53.592;10.184;2023-10-09T15:46:44;101399.53;;;13.58;100.00
16016;BME280;8112;53.592;10.184;2023-10-09T15:51:46;101396.22;;;13.54;100.00
16016;BME280;8112;53.592;10.184;2023-10-09T15:56:48;101403.97;;;13.57;100.00
16016;BME280;8112;53.592;10.184;2023-10-09T16:01:51;101409.25;;;13.57;100.00
16016;BME280;8112;53.592;10.184;2023-10-09T16:06:54;101412.75;;;13.43;100.00
16016;BME280;8112;53.592;10.184;2023-10-09T16:11:55;101424.25;;;13.42;100.00
16016;BME280;8112;53.592;10.184;2023-10-09T16:16:59;101426.69;;;13.31;100.00
16016;BME280;8112;53.592;10.184;2023-10-09T16:22:02;101438.63;;;13.38;100.00
16016;BME280;8112;53.592;10.184;2023-10-09T16:27:04;101451.88;;;13.38;100.00
16016;BME280;8112;53.592;10.184;2023-10-09T16:32:07;101456.88;;;13.43;100.00
16016;BME280;8112;53.592;10.184;2023-10-09T16:37:11;101461.25;;;13.44;100.00
16016;BME280;8112;53.592;10.184;2023-10-09T16:42:14;101478.06;;;13.43;100.00
16016;BME280;8112;53.592;10.184;2023-10-09T16:47:17;101490.97;;;13.33;100.00
16016;BME280;8112;53.592;10.184;2023-10-09T16:52:19;101483.72;;;13.36;100.00
16016;BME280;8112;53.592;10.184;2023-10-09T16:57:20;101500.47;;;13.37;100.00
16016;BME280;8112;53.592;10.184;2023-10-09T17:02:25;101493.28;;;13.39;100.00
16016;BME280;8112;53.592;10.184;2023-10-09T17:07:27;101500.88;;;13.45;100.00
16016;BME280;8112;53.592;10.184;2023-10-09T17:12:34;101499.88;;;13.48;100.00
16016;BME280;8112;53.592;10.184;2023-10-09T17:17:37;101504.22;;;13.49;100.00
16016;BME280;8112;53.592;10.184;2023-10-09T17:22:39;101506.19;;;13.45;100.00
16016;BME280;8112;53.592;10.184;2023-10-09T17:27:41;101513.75;;;13.51;100.00
16016;BME280;8112;53.592;10.184;2023-10-09T17:32:45;101529.66;;;13.51;100.00
16016;BME280;8112;53.592;10.184;2023-10-09T17:37:47;101534.94;;;13.51;100.00
16016;BME280;8112;53.592;10.184;2023-10-09T17:42:48;101540.09;;;13.54;100.00
16016;BME280;8112;53.592;10.184;2023-10-09T17:47:54;101550.13;;;13.64;100.00
16016;BME280;8112;53.592;10.184;2023-10-09T17:52:57;101548.78;;;13.71;100.00
16016;BME280;8112;53.592;10.184;2023-10-09T17:58:00;101547.84;;;13.72;100.00
16016;BME280;8112;53.592;10.184;2023-10-09T18:03:08;101557.53;;;13.73;100.00
16016;BME280;8112;53.592;10.184;2023-10-09T18:08:11;101562.63;;;13.76;100.00
16016;BME280;8112;53.592;10.184;2023-10-09T18:13:15;101561.28;;;13.69;100.00
16016;BME280;8112;53.592;10.184;2023-10-09T18:18:19;101571.63;;;13.74;100.00
16016;BME280;8112;53.592;10.184;2023-10-09T18:23:21;101579.09;;;13.81;100.00
16016;BME280;8112;53.592;10.184;2023-10-09T18:28:22;101576.09;;;13.88;100.00
16016;BME280;8112;53.592;10.184;2023-10-09T18:33:26;101577.03;;;13.87;100.00
16016;BME280;8112;53.592;10.184;2023-10-09T18:38:28;101584.22;;;13.85;100.00
16016;BME280;8112;53.592;10.184;2023-10-09T18:43:30;101580.16;;;13.93;100.00
16016;BME280;8112;53.592;10.184;2023-10-09T18:48:33;101591.19;;;14.02;100.00
16016;BME280;8112;53.592;10.184;2023-10-09T18:53:34;101594.78;;;14.01;100.00
16016;BME280;8112;53.592;10.184;2023-10-09T18:58:36;101602.63;;;14.02;100.00
16016;BME280;8112;53.592;10.184;2023-10-09T19:03:39;101610.03;;;14.11;100.00
16016;BME280;8112;53.592;10.184;2023-10-09T19:08:41;101601.41;;;14.08;100.00
16016;BME280;8112;53.592;10.184;2023-10-09T19:13:43;101610.31;;;14.07;100.00
16016;BME280;8112;53.592;10.184;2023-10-09T19:18:46;101609.44;;;14.06;100.00
16016;BME280;8112;53.592;10.184;2023-10-09T19:23:48;101614.84;;;14.05;100.00
16016;BME280;8112;53.592;10.184;2023-10-09T19:28:49;101628.09;;;14.05;100.00
16016;BME280;8112;53.592;10.184;2023-10-09T19:33:52;101617.94;;;13.97;100.00
16016;BME280;8112;53.592;10.184;2023-10-09T19:38:54;101628.81;;;13.92;100.00
16016;BME280;8112;53.592;10.184;2023-10-09T19:43:56;101634.09;;;13.92;100.00
16016;BME280;8112;53.592;10.184;2023-10-09T19:48:59;101636.50;;;13.97;100.00
16016;BME280;8112;53.592;10.184;2023-10-09T19:54:01;101639.22;;;13.95;100.00
16016;BME280;8112;53.592;10.184;2023-10-09T19:59:04;101638.00;;;14.01;100.00
16016;BME280;8112;53.592;10.184;2023-10-09T20:04:07;101645.97;;;14.01;100.00
16016;BME280;8112;53.592;10.184;2023-10-09T20:09:09;101646.03;;;14.00;100.00
16016;BME280;8112;53.592;10.184;2023-10-09T20:14:14;101649.88;;;14.10;100.00
16016;BME280;8112;53.592;10.184;2023-10-09T20:19:20;101651.31;;;14.16;100.00
16016;BME280;8112;53.592;10.184;2023-10-09T20:24:21;101651.88;;;14.21;100.00
16016;BME280;8112;53.592;10.184;2023-10-09T20:29:25;101657.19;;;14.21;100.00
16016;BME280;8112;53.592;10.184;2023-10-09T20:34:28;101655.19;;;14.24;100.00
16016;BME280;8112;53.592;10.184;2023-10-09T20:39:31;101665.06;;;14.22;100.00
16016;BME280;8112;53.592;10.184;2023-10-09T20:44:33;101669.97;;;14.29;100.00
16016;BME280;8112;53.592;10.184;2023-10-09T20:49:37;101674.72;;;14.23;100.00
16016;BME280;8112;53.592;10.184;2023-10-09T20:54:43;101674.25;;;14.31;100.00
16016;BME280;8112;53.592;10.184;2023-10-09T20:59:45;101682.22;;;14.31;100.00
16016;BME280;8112;53.592;10.184;2023-10-09T21:04:48;101694.50;;;14.32;100.00
16016;BME280;8112;53.592;10.184;2023-10-09T21:09:52;101683.16;;;14.30;100.00
16016;BME280;8112;53.592;10.184;2023-10-09T21:14:54;101693.66;;;14.32;100.00
16016;BME280;8112;53.592;10.184;2023-10-09T21:20:00;101696.78;;;14.38;100.00
16016;BME280;8112;53.592;10.184;2023-10-09T21:25:01;101692.06;;;14.44;100.00
16016;BME280;8112;53.592;10.184;2023-10-09T21:30:06;101688.34;;;14.32;100.00
16016;BME280;8112;53.592;10.184;2023-10-09T21:35:12;101694.72;;;14.44;100.00
16016;BME280;8112;53.592;10.184;2023-10-09T21:40:17;101698.31;;;14.43;100.00
16016;BME280;8112;53.592;10.184;2023-10-09T21:45:24;101691.22;;;14.43;100.00
16016;BME280;8112;53.592;10.184;2023-10-09T21:50:28;101692.06;;;14.44;100.00
16016;BME280;8112;53.592;10.184;2023-10-09T21:55:31;101691.03;;;14.46;100.00
16016;BME280;8112;53.592;10.184;2023-10-09T22:00:34;101687.53;;;14.46;100.00
16016;BME280;8112;53.592;10.184;2023-10-09T22:05:38;101677.09;;;14.43;100.00
16016;BME280;8112;53.592;10.184;2023-10-09T22:10:42;101675.19;;;14.30;100.00
16016;BME280;8112;53.592;10.184;2023-10-09T22:15:45;101670.84;;;14.44;100.00
16016;BME280;8112;53.592;10.184;2023-10-09T22:20:51;101676.63;;;14.50;100.00
16016;BME280;8112;53.592;10.184;2023-10-09T22:25:54;101671.44;;;14.49;100.00
16016;BME280;8112;53.592;10.184;2023-10-09T22:31:00;101672.38;;;14.48;100.00
16016;BME280;8112;53.592;10.184;2023-10-09T22:36:05;101675.78;;;14.50;100.00
16016;BME280;8112;53.592;10.184;2023-10-09T22:41:10;101676.81;;;14.47;100.00
16016;BME280;8112;53.592;10.184;2023-10-09T22:46:20;101675.78;;;14.50;100.00
16016;BME280;8112;53.592;10.184;2023-10-09T22:51:24;101670.56;;;14.48;100.00
16016;BME280;8112;53.592;10.184;2023-10-09T22:56:30;101683.00;;;14.48;100.00
16016;BME280;8112;53.592;10.184;2023-10-09T23:01:31;101689.41;;;14.44;100.00
16016;BME280;8112;53.592;10.184;2023-10-09T23:06:34;101677.28;;;14.39;100.00
16016;BME280;8112;53.592;10.184;2023-10-09T23:11:41;101685.25;;;14.39;100.00
16016;BME280;8112;53.592;10.184;2023-10-09T23:16:45;101686.00;;;14.42;100.00
16016;BME280;8112;53.592;10.184;2023-10-09T23:21:52;101692.44;;;14.37;100.00
16016;BME280;8112;53.592;10.184;2023-10-09T23:27:12;101691.22;;;14.43;100.00
16016;BME280;8112;53.592;10.184;2023-10-09T23:32:26;101687.22;;;14.36;100.00
16016;BME280;8112;53.592;10.184;2023-10-09T23:37:33;101683.03;;;14.32;100.00
16016;BME280;8112;53.592;10.184;2023-10-09T23:42:37;101682.50;;;14.41;100.00
16016;BME280;8112;53.592;10.184;2023-10-09T23:47:39;101704.38;;;14.45;100.00
16016;BME280;8112;53.592;10.184;2023-10-09T23:52:42;101698.31;;;14.28;100.00
16016;BME280;8112;53.592;10.184;2023-10-09T23:57:46;101705.78;;;14.36;100.00
